createdAt,value
2023-04-16T00:02:03.722Z,16.80
2023-04-16T00:04:31.312Z,15.18
2023-04-16T00:06:58.425Z,15.35
2023-04-16T00:09:25.564Z,13.55
2023-04-16T00:11:52.600Z,11.57
2023-04-16T00:14:19.721Z,13.55
2023-04-16T00:16:46.928Z,12.85
2023-04-16T00:19:14.064Z,15.05
2023-04-16T00:21:41.407Z,12.40
2023-04-16T00:24:08.677Z,12.95
2023-04-16T00:26:35.675Z,12.50
2023-04-16T00:29:02.813Z,9.90
2023-04-16T00:31:31.530Z,12.75
2023-04-16T00:33:59.382Z,14.52
2023-04-16T00:36:28.068Z,12.68
2023-04-16T00:38:56.246Z,13.23
2023-04-16T00:41:23.951Z,11.13
2023-04-16T00:43:51.801Z,16.95
2023-04-16T00:46:24.149Z,10.88
2023-04-16T00:48:53.082Z,12.55
2023-04-16T00:51:21.696Z,13.05
2023-04-16T00:53:49.109Z,12.00
2023-04-16T00:56:17.645Z,14.10
2023-04-16T00:58:45.100Z,12.80
2023-04-16T01:01:14.698Z,13.13
2023-04-16T01:03:48.145Z,11.88
2023-04-16T01:06:17.691Z,16.45
2023-04-16T01:08:45.679Z,17.42
2023-04-16T01:11:12.781Z,19.67
2023-04-16T01:13:40.077Z,15.25
2023-04-16T01:16:08.565Z,12.80
2023-04-16T01:18:36.422Z,13.27
2023-04-16T01:21:04.276Z,10.98
2023-04-16T01:23:32.224Z,13.45
2023-04-16T01:25:59.372Z,13.88
2023-04-16T01:28:26.794Z,15.38
2023-04-16T01:30:53.829Z,12.73
2023-04-16T01:33:43.921Z,12.48
2023-04-16T01:36:12.305Z,12.70
2023-04-16T01:38:39.559Z,12.57
2023-04-16T01:41:06.666Z,15.63
2023-04-16T01:43:35.394Z,13.80
2023-04-16T01:46:14.480Z,12.75
2023-04-16T01:48:41.824Z,12.57
2023-04-16T01:51:09.464Z,12.02
2023-04-16T01:53:37.281Z,13.38
2023-04-16T01:56:04.814Z,15.77
2023-04-16T01:58:33.147Z,14.80
2023-04-16T02:01:00.725Z,15.15
2023-04-16T02:03:28.403Z,14.52
2023-04-16T02:05:55.810Z,14.93
2023-04-16T02:08:23.585Z,16.40
2023-04-16T02:10:51.333Z,14.85
2023-04-16T02:13:18.453Z,18.05
2023-04-16T02:15:49.160Z,16.27
2023-04-16T02:18:20.820Z,15.80
2023-04-16T02:20:49.760Z,16.20
2023-04-16T02:23:17.495Z,18.67
2023-04-16T02:25:46.652Z,17.17
2023-04-16T02:28:16.725Z,17.30
2023-04-16T02:30:45.652Z,20.17
2023-04-16T02:33:14.815Z,15.68
2023-04-16T02:35:51.905Z,16.33
2023-04-16T02:38:18.948Z,18.38
2023-04-16T02:40:46.568Z,16.83
2023-04-16T02:43:13.751Z,18.10
2023-04-16T02:45:40.912Z,15.80
2023-04-16T02:48:09.292Z,16.73
2023-04-16T02:50:36.406Z,14.77
2023-04-16T02:53:04.525Z,17.00
2023-04-16T02:55:31.651Z,14.15
2023-04-16T02:57:58.734Z,16.15
2023-04-16T03:00:25.837Z,18.13
2023-04-16T03:02:53.034Z,19.55
2023-04-16T03:05:20.173Z,18.33
2023-04-16T03:07:47.327Z,17.80
2023-04-16T03:10:15.673Z,17.67
2023-04-16T03:12:42.786Z,15.95
2023-04-16T03:15:10.525Z,18.00
2023-04-16T03:17:37.687Z,17.27
2023-04-16T03:20:05.622Z,13.82
2023-04-16T03:22:33.784Z,18.52
2023-04-16T03:25:00.914Z,16.73
2023-04-16T03:27:27.947Z,19.05
2023-04-16T03:29:55.474Z,15.68
2023-04-16T03:32:22.555Z,20.25
2023-04-16T03:34:49.798Z,19.17
2023-04-16T03:37:17.118Z,19.27
2023-04-16T03:39:44.459Z,18.80
2023-04-16T03:42:11.935Z,15.75
2023-04-16T03:44:39.008Z,19.00
2023-04-16T03:47:06.060Z,17.75
2023-04-16T03:49:33.102Z,17.40
2023-04-16T03:52:00.303Z,20.30
2023-04-16T03:54:27.400Z,20.73
2023-04-16T03:57:06.207Z,19.92
2023-04-16T03:59:33.721Z,17.45
2023-04-16T04:02:01.051Z,21.10
2023-04-16T04:04:28.330Z,19.58
2023-04-16T04:06:55.838Z,21.55
2023-04-16T04:09:23.486Z,17.15
2023-04-16T04:11:50.926Z,20.80
2023-04-16T04:14:18.028Z,20.23
2023-04-16T04:16:45.158Z,20.90
2023-04-16T04:19:12.799Z,18.73
2023-04-16T04:21:39.906Z,20.63
2023-04-16T04:24:07.065Z,17.83
2023-04-16T04:26:34.739Z,21.00
2023-04-16T04:29:01.867Z,21.13
2023-04-16T04:31:30.561Z,20.38
2023-04-16T04:33:57.884Z,17.83
2023-04-16T04:36:25.099Z,19.10
2023-04-16T04:38:52.386Z,17.35
2023-04-16T04:41:22.932Z,22.02
2023-04-16T04:43:50.003Z,20.45
2023-04-16T04:46:17.417Z,23.27
2023-04-16T04:48:44.533Z,21.75
2023-04-16T04:51:11.590Z,21.63
2023-04-16T04:53:38.656Z,22.77
2023-04-16T04:56:12.176Z,27.10
2023-04-16T04:58:41.614Z,23.00
2023-04-16T05:01:08.760Z,21.65
2023-04-16T05:03:36.236Z,22.65
2023-04-16T05:06:03.453Z,22.25
2023-04-16T05:08:30.809Z,22.67
2023-04-16T05:10:57.894Z,23.23
2023-04-16T05:13:24.943Z,21.60
2023-04-16T05:15:52.071Z,22.52
2023-04-16T05:18:19.138Z,22.25
2023-04-16T05:20:46.345Z,22.80
2023-04-16T05:23:13.421Z,21.42
2023-04-16T05:25:40.458Z,23.75
2023-04-16T05:28:07.623Z,24.65
2023-04-16T05:30:34.684Z,21.27
2023-04-16T05:33:01.798Z,19.98
2023-04-16T05:35:28.900Z,20.48
2023-04-16T05:37:56.003Z,23.33
2023-04-16T05:40:23.001Z,21.67
2023-04-16T05:42:50.414Z,20.58
2023-04-16T05:45:17.543Z,21.00
2023-04-16T05:47:44.829Z,23.58
2023-04-16T05:50:11.951Z,25.70
2023-04-16T05:52:39.156Z,24.63
2023-04-16T05:55:07.392Z,21.85
2023-04-16T05:57:34.502Z,25.13
2023-04-16T06:00:01.547Z,25.35
2023-04-16T06:02:39.585Z,29.27
2023-04-16T06:05:07.176Z,27.25
2023-04-16T06:07:34.307Z,25.42
2023-04-16T06:10:01.419Z,25.80
2023-04-16T06:12:28.516Z,28.48
2023-04-16T06:14:56.474Z,30.88
2023-04-16T06:17:23.703Z,31.33
2023-04-16T06:19:50.903Z,30.45
2023-04-16T06:22:18.007Z,29.63
2023-04-16T06:24:45.176Z,26.52
2023-04-16T06:27:12.204Z,29.58
2023-04-16T06:29:41.623Z,31.63
2023-04-16T06:32:09.361Z,29.10
2023-04-16T06:34:37.724Z,27.55
2023-04-16T06:37:04.918Z,28.30
2023-04-16T06:39:32.088Z,28.45
2023-04-16T06:41:59.176Z,28.02
2023-04-16T06:44:26.211Z,30.95
2023-04-16T06:46:53.398Z,25.13
2023-04-16T06:49:21.784Z,26.92
2023-04-16T06:51:48.941Z,26.73
2023-04-16T06:54:16.940Z,29.05
2023-04-16T06:56:44.117Z,26.90
2023-04-16T06:59:11.703Z,33.30
2023-04-16T07:01:38.966Z,29.67
2023-04-16T07:04:06.215Z,31.65
2023-04-16T07:06:33.489Z,29.33
2023-04-16T07:09:00.567Z,28.20
2023-04-16T07:11:27.834Z,28.85
2023-04-16T07:13:55.008Z,30.45
2023-04-16T07:16:22.199Z,31.08
2023-04-16T07:18:49.309Z,28.38
2023-04-16T07:21:16.680Z,33.63
2023-04-16T07:23:43.786Z,35.90
2023-04-16T07:26:11.931Z,44.83
2023-04-16T07:28:39.196Z,36.05
2023-04-16T07:31:06.541Z,36.47
2023-04-16T07:33:33.949Z,35.90
2023-04-16T07:36:01.105Z,33.35
2023-04-16T07:38:28.211Z,32.45
2023-04-16T07:40:57.028Z,32.72
2023-04-16T07:43:24.263Z,35.22
2023-04-16T07:45:51.313Z,34.38
2023-04-16T07:48:18.466Z,36.03
2023-04-16T07:50:45.849Z,35.35
2023-04-16T07:53:13.083Z,43.20
2023-04-16T07:55:40.124Z,37.75
2023-04-16T07:58:09.698Z,34.28
2023-04-16T08:00:36.936Z,38.03
2023-04-16T08:03:04.540Z,39.25
2023-04-16T08:05:31.867Z,43.63
2023-04-16T08:07:59.178Z,42.67
2023-04-16T08:10:26.415Z,43.55
2023-04-16T08:12:54.097Z,52.20
2023-04-16T08:15:21.402Z,62.90
2023-04-16T08:17:48.585Z,69.95
2023-04-16T08:20:19.335Z,69.70
2023-04-16T08:22:46.706Z,72.03
2023-04-16T08:25:14.642Z,67.50
2023-04-16T08:27:41.722Z,69.80
2023-04-16T08:30:08.948Z,60.13
2023-04-16T08:32:36.190Z,76.68
2023-04-16T08:35:03.491Z,75.43
2023-04-16T08:37:30.716Z,76.80
2023-04-16T08:39:57.798Z,76.35
2023-04-16T08:42:32.802Z,79.90
2023-04-16T08:45:18.931Z,74.55
2023-04-16T08:47:47.971Z,64.93
2023-04-16T08:50:23.025Z,67.03
2023-04-16T08:52:53.071Z,61.67
2023-04-16T08:55:24.100Z,61.63
2023-04-16T08:57:57.881Z,64.38
2023-04-16T09:00:25.121Z,72.60
2023-04-16T09:02:53.195Z,74.57
2023-04-16T09:05:22.973Z,78.88
2023-04-16T09:07:50.460Z,66.78
2023-04-16T09:10:17.771Z,67.07
2023-04-16T09:12:45.204Z,56.95
2023-04-16T09:15:13.890Z,63.10
2023-04-16T09:17:41.140Z,64.18
2023-04-16T09:20:11.183Z,63.72
2023-04-16T09:22:40.220Z,63.58
2023-04-16T09:25:08.487Z,58.70
2023-04-16T09:27:36.513Z,53.35
2023-04-16T09:30:27.626Z,62.55
2023-04-16T09:33:23.559Z,61.75
2023-04-16T09:35:52.906Z,64.35
2023-04-16T09:38:21.358Z,52.65
2023-04-16T09:40:48.541Z,54.75
2023-04-16T09:43:19.254Z,58.15
2023-04-16T09:45:51.019Z,59.20
2023-04-16T09:48:31.172Z,59.33
2023-04-16T09:50:59.270Z,57.03
2023-04-16T09:53:30.974Z,53.97
2023-04-16T09:56:03.616Z,47.03
2023-04-16T09:58:30.766Z,49.58
2023-04-16T10:01:07.839Z,51.05
2023-04-16T10:03:36.978Z,58.97
2023-04-16T10:06:08.418Z,51.75
2023-04-16T10:08:36.349Z,51.90
2023-04-16T10:11:03.577Z,57.70
2023-04-16T10:13:31.505Z,52.78
2023-04-16T10:15:59.041Z,52.22
2023-04-16T10:18:26.620Z,44.78
2023-04-16T10:20:53.841Z,47.67
2023-04-16T10:23:22.432Z,49.72
2023-04-16T10:25:50.663Z,47.38
2023-04-16T10:28:17.837Z,43.65
2023-04-16T10:30:53.044Z,43.00
2023-04-16T10:33:26.951Z,42.33
2023-04-16T10:36:08.847Z,47.22
2023-04-16T10:38:49.571Z,49.13
2023-04-16T10:41:17.052Z,41.58
2023-04-16T10:43:46.123Z,43.42
2023-04-16T10:46:26.923Z,45.95
2023-04-16T10:48:55.877Z,43.15
2023-04-16T10:51:31.749Z,43.78
2023-04-16T10:54:09.541Z,43.90
2023-04-16T10:56:37.731Z,41.05
2023-04-16T10:59:06.693Z,42.22
2023-04-16T11:01:41.368Z,42.35
2023-04-16T11:04:20.990Z,44.38
2023-04-16T11:07:19.725Z,42.45
2023-04-16T11:10:00.879Z,42.60
2023-04-16T11:12:46.833Z,38.85
2023-04-16T11:15:15.748Z,41.38
2023-04-16T11:17:50.753Z,43.15
2023-04-16T11:20:23.028Z,46.58
2023-04-16T11:22:57.944Z,43.05
2023-04-16T11:25:27.936Z,45.53
2023-04-16T11:27:55.365Z,37.42
2023-04-16T11:30:34.324Z,40.42
2023-04-16T11:33:04.187Z,40.13
2023-04-16T11:35:32.579Z,44.65
2023-04-16T11:37:59.747Z,53.22
2023-04-16T11:40:31.500Z,53.08
2023-04-16T11:43:04.185Z,42.25
2023-04-16T11:45:31.429Z,41.47
2023-04-16T11:47:58.687Z,46.92
2023-04-16T11:50:29.454Z,44.63
2023-04-16T11:53:03.406Z,43.13
2023-04-16T11:55:31.267Z,43.72
2023-04-16T11:57:58.376Z,40.67
2023-04-16T12:00:25.659Z,39.15
2023-04-16T12:02:55.355Z,33.53
2023-04-16T12:05:35.934Z,40.25
2023-04-16T12:08:12.967Z,37.22
2023-04-16T12:10:56.560Z,43.50
2023-04-16T12:13:23.621Z,41.40
2023-04-16T12:15:56.208Z,47.35
2023-04-16T12:18:26.383Z,45.78
2023-04-16T12:20:53.604Z,47.17
2023-04-16T12:23:31.407Z,47.78
2023-04-16T12:26:02.889Z,50.25
2023-04-16T12:28:31.451Z,51.78
2023-04-16T12:30:58.911Z,49.33
2023-04-16T12:33:26.336Z,50.15
2023-04-16T12:35:53.460Z,43.22
2023-04-16T12:38:22.835Z,45.60
2023-04-16T12:40:51.702Z,47.50
2023-04-16T12:43:20.014Z,49.72
2023-04-16T12:45:47.153Z,51.88
2023-04-16T12:48:14.428Z,51.03
2023-04-16T12:50:44.475Z,53.78
2023-04-16T12:53:12.233Z,49.38
2023-04-16T12:55:39.445Z,61.17
2023-04-16T12:58:07.075Z,47.83
2023-04-16T13:00:34.088Z,51.67
2023-04-16T13:03:01.378Z,52.28
2023-04-16T13:05:28.624Z,52.90
2023-04-16T13:07:55.966Z,57.42
2023-04-16T13:10:23.793Z,55.83
2023-04-16T13:12:51.053Z,52.38
2023-04-16T13:15:20.909Z,53.20
2023-04-16T13:17:48.196Z,50.55
2023-04-16T13:20:15.707Z,56.03
2023-04-16T13:22:42.815Z,60.60
2023-04-16T13:25:10.630Z,53.45
2023-04-16T13:27:37.712Z,57.50
2023-04-16T13:30:05.062Z,57.42
2023-04-16T13:32:32.319Z,55.60
2023-04-16T13:34:59.543Z,54.92
2023-04-16T13:37:26.838Z,60.10
2023-04-16T13:39:53.970Z,64.53
2023-04-16T13:42:22.292Z,50.65
2023-04-16T13:44:53.234Z,54.83
2023-04-16T13:47:20.398Z,54.08
2023-04-16T13:49:47.886Z,47.67
2023-04-16T13:52:14.982Z,43.33
2023-04-16T13:54:42.896Z,54.45
2023-04-16T13:57:20.047Z,52.65
2023-04-16T13:59:47.188Z,47.20
2023-04-16T14:02:14.424Z,46.25
2023-04-16T14:04:42.236Z,43.42
2023-04-16T14:07:09.346Z,43.80
2023-04-16T14:09:36.780Z,47.45
2023-04-16T14:12:04.010Z,44.00
2023-04-16T14:14:31.405Z,47.10
2023-04-16T14:16:59.420Z,40.00
2023-04-16T14:19:26.469Z,37.10
2023-04-16T14:21:54.576Z,39.33
2023-04-16T14:24:21.640Z,42.45
2023-04-16T14:26:48.742Z,33.83
2023-04-16T14:29:15.927Z,39.45
2023-04-16T14:31:43.123Z,33.40
2023-04-16T14:34:10.218Z,35.65
2023-04-16T14:36:37.427Z,39.17
2023-04-16T14:39:04.979Z,33.17
2023-04-16T14:41:32.111Z,36.38
2023-04-16T14:43:59.927Z,31.55
2023-04-16T14:46:27.326Z,29.95
2023-04-16T14:48:54.446Z,31.27
2023-04-16T14:51:21.767Z,30.88
2023-04-16T14:53:48.926Z,29.23
2023-04-16T14:56:15.987Z,29.00
2023-04-16T14:58:43.571Z,27.67
2023-04-16T15:01:10.827Z,28.23
2023-04-16T15:03:38.330Z,30.33
2023-04-16T15:06:05.919Z,25.95
2023-04-16T15:08:33.088Z,25.50
2023-04-16T15:11:00.306Z,24.65
2023-04-16T15:13:33.815Z,25.20
2023-04-16T15:16:07.467Z,27.15
2023-04-16T15:18:34.747Z,28.60
2023-04-16T15:21:01.857Z,28.35
2023-04-16T15:23:28.949Z,31.60
2023-04-16T15:25:56.080Z,27.20
2023-04-16T15:28:23.540Z,33.33
2023-04-16T15:30:50.685Z,31.67
2023-04-16T15:33:18.001Z,34.78
2023-04-16T15:35:45.079Z,25.85
2023-04-16T15:38:12.196Z,27.70
2023-04-16T15:40:39.314Z,25.40
2023-04-16T15:43:06.778Z,27.08
2023-04-16T15:45:33.780Z,27.40
2023-04-16T15:48:01.116Z,29.50
2023-04-16T15:50:28.427Z,26.08
2023-04-16T15:52:55.642Z,27.20
2023-04-16T15:55:22.739Z,29.13
2023-04-16T15:57:49.866Z,23.67
2023-04-16T16:00:17.401Z,25.58
2023-04-16T16:02:46.662Z,25.90
2023-04-16T16:05:15.128Z,26.00
2023-04-16T16:07:43.280Z,25.77
2023-04-16T16:10:11.897Z,33.67
2023-04-16T16:12:40.076Z,31.55
2023-04-16T16:15:08.011Z,39.20
2023-04-16T16:17:35.255Z,30.33
2023-04-16T16:20:02.526Z,32.13
2023-04-16T16:22:30.025Z,29.80
2023-04-16T16:24:58.879Z,26.75
2023-04-16T16:27:26.079Z,25.30
2023-04-16T16:29:53.173Z,21.95
2023-04-16T16:32:20.368Z,21.27
2023-04-16T16:34:47.463Z,24.38
2023-04-16T16:37:14.717Z,21.88
2023-04-16T16:39:42.036Z,21.73
2023-04-16T16:42:09.431Z,21.70
2023-04-16T16:44:37.140Z,20.70
2023-04-16T16:47:04.315Z,21.42
2023-04-16T16:49:31.459Z,20.58
2023-04-16T16:51:58.569Z,20.98
2023-04-16T16:54:25.768Z,20.75
2023-04-16T16:56:53.287Z,19.92
2023-04-16T16:59:20.489Z,25.10
2023-04-16T17:01:47.581Z,21.40
2023-04-16T17:04:15.601Z,26.00
2023-04-16T17:06:44.194Z,31.20
2023-04-16T17:09:11.535Z,23.23
2023-04-16T17:11:38.776Z,25.13
2023-04-16T17:14:05.997Z,24.52
2023-04-16T17:16:33.118Z,25.52
2023-04-16T17:19:01.580Z,24.30
2023-04-16T17:21:28.731Z,24.00
2023-04-16T17:23:57.670Z,27.15
2023-04-16T17:26:24.842Z,29.30
2023-04-16T17:28:51.956Z,29.27
2023-04-16T17:31:19.140Z,26.92
2023-04-16T17:33:46.376Z,27.95
2023-04-16T17:36:13.450Z,24.30
2023-04-16T17:38:43.024Z,29.00
2023-04-16T17:41:12.484Z,26.42
2023-04-16T17:43:39.613Z,21.58
2023-04-16T17:46:09.869Z,21.75
2023-04-16T17:48:37.565Z,24.70
2023-04-16T17:51:12.106Z,20.88
2023-04-16T17:53:39.544Z,17.33
2023-04-16T17:56:07.084Z,15.48
2023-04-16T17:58:35.444Z,15.50
2023-04-16T18:01:03.647Z,15.05
2023-04-16T18:03:31.802Z,16.33
2023-04-16T18:05:59.298Z,18.70
2023-04-16T18:08:26.987Z,18.38
2023-04-16T18:10:55.322Z,16.38
2023-04-16T18:13:23.242Z,15.65
2023-04-16T18:15:50.643Z,17.90
2023-04-16T18:18:18.765Z,18.10
2023-04-16T18:20:45.960Z,21.08
2023-04-16T18:23:12.963Z,19.92
2023-04-16T18:25:40.336Z,24.15
2023-04-16T18:28:07.564Z,21.35
2023-04-16T18:30:35.625Z,23.98
2023-04-16T18:35:32.791Z,24.35
2023-04-16T18:38:00.282Z,25.77
2023-04-16T18:40:29.389Z,25.20
2023-04-16T18:42:56.469Z,23.23
2023-04-16T18:45:23.589Z,22.52
2023-04-16T18:47:50.945Z,28.45
2023-04-16T18:50:18.194Z,25.20
2023-04-16T18:52:45.331Z,24.88
2023-04-16T18:55:12.394Z,22.55
2023-04-16T18:57:39.488Z,21.55
2023-04-16T19:00:12.669Z,24.83
2023-04-16T19:02:40.761Z,22.30
2023-04-16T19:05:09.561Z,24.08
2023-04-16T19:07:37.778Z,23.67
2023-04-16T19:10:05.689Z,20.65
2023-04-16T19:12:32.991Z,22.05
2023-04-16T19:15:00.270Z,19.23
2023-04-16T19:17:27.454Z,22.15
2023-04-16T19:19:54.583Z,19.98
2023-04-16T19:22:21.657Z,19.95
2023-04-16T19:24:48.669Z,21.65
2023-04-16T19:27:15.738Z,19.70
2023-04-16T19:29:43.615Z,18.40
2023-04-16T19:32:11.492Z,18.20
2023-04-16T19:34:39.863Z,22.40
2023-04-16T19:37:06.828Z,15.45
2023-04-16T19:39:33.880Z,18.30
2023-04-16T19:42:02.172Z,14.70
2023-04-16T19:44:29.222Z,15.00
2023-04-16T19:46:56.467Z,12.55
2023-04-16T19:49:25.430Z,13.73
2023-04-16T19:51:52.507Z,13.18
2023-04-16T19:54:19.590Z,14.85
2023-04-16T19:56:46.811Z,14.45
2023-04-16T19:59:13.784Z,19.58
2023-04-16T20:01:40.997Z,13.68
2023-04-16T20:04:08.064Z,12.70
2023-04-16T20:06:35.118Z,14.52
2023-04-16T20:09:02.204Z,14.77
2023-04-16T20:11:29.256Z,13.32
2023-04-16T20:14:00.281Z,15.85
2023-04-16T20:16:27.466Z,14.13
2023-04-16T20:18:54.597Z,13.88
2023-04-16T20:21:21.831Z,22.73
2023-04-16T20:23:49.249Z,17.98
2023-04-16T20:26:18.488Z,16.38
2023-04-16T20:28:45.797Z,19.38
2023-04-16T20:31:13.265Z,17.65
2023-04-16T20:33:40.398Z,18.42
2023-04-16T20:36:07.831Z,17.63
2023-04-16T20:38:35.847Z,15.23
2023-04-16T20:41:20.304Z,16.25
2023-04-16T20:43:50.324Z,20.25
2023-04-16T20:46:17.859Z,16.75
2023-04-16T20:48:45.153Z,15.77
2023-04-16T20:51:12.335Z,15.23
2023-04-16T20:53:39.378Z,14.45
2023-04-16T20:56:07.147Z,17.05
2023-04-16T20:58:34.212Z,15.90
2023-04-16T21:01:01.540Z,16.15
2023-04-16T21:03:28.852Z,15.80
2023-04-16T21:05:56.148Z,17.05
2023-04-16T21:08:24.390Z,15.48
2023-04-16T21:10:51.631Z,14.77
2023-04-16T21:13:20.814Z,13.13
2023-04-16T21:15:47.925Z,16.50
2023-04-16T21:18:15.100Z,15.88
2023-04-16T21:20:42.064Z,14.77
2023-04-16T21:23:09.019Z,15.48
2023-04-16T21:25:36.176Z,16.63
2023-04-16T21:28:03.071Z,14.40
2023-04-16T21:30:30.176Z,14.48
2023-04-16T21:32:57.151Z,14.38
2023-04-16T21:35:24.113Z,13.43
2023-04-16T21:37:51.052Z,13.88
2023-04-16T21:40:18.210Z,16.42
2023-04-16T21:42:45.256Z,15.85
2023-04-16T21:45:12.340Z,15.77
2023-04-16T21:47:39.320Z,13.63
2023-04-16T21:50:06.902Z,14.57
2023-04-16T21:52:33.935Z,15.30
2023-04-16T21:55:01.229Z,12.88
2023-04-16T21:57:28.345Z,14.07
2023-04-16T21:59:55.342Z,17.10
2023-04-16T22:02:22.441Z,15.85
2023-04-16T22:04:49.606Z,15.20
2023-04-16T22:07:17.164Z,15.02
2023-04-16T22:09:44.258Z,14.65
2023-04-16T22:12:11.323Z,14.90
2023-04-16T22:14:43.973Z,17.27
2023-04-16T22:17:15.197Z,14.90
2023-04-16T22:19:42.575Z,15.07
2023-04-16T22:22:09.601Z,14.20
2023-04-16T22:24:36.644Z,17.83
2023-04-16T22:27:03.807Z,16.33
2023-04-16T22:29:30.779Z,14.98
2023-04-16T22:31:57.906Z,15.43
2023-04-16T22:34:24.922Z,18.27
2023-04-16T22:36:51.906Z,15.75
2023-04-16T22:39:18.975Z,15.02
2023-04-16T22:41:46.051Z,15.25
2023-04-16T22:44:13.013Z,16.75
2023-04-16T22:46:40.057Z,17.05
2023-04-16T22:49:07.051Z,16.90
2023-04-16T22:51:34.363Z,15.25
2023-04-16T22:54:01.627Z,14.60
2023-04-16T22:56:30.479Z,14.35
2023-04-16T22:58:57.770Z,14.90
2023-04-16T23:01:24.914Z,14.60
2023-04-16T23:03:52.856Z,14.30
2023-04-16T23:06:19.974Z,13.93
2023-04-16T23:08:46.987Z,15.05
2023-04-16T23:11:14.057Z,13.15
2023-04-16T23:13:42.816Z,14.27
2023-04-16T23:16:09.813Z,15.13
2023-04-16T23:18:37.099Z,16.00
2023-04-16T23:21:04.167Z,16.00
2023-04-16T23:23:31.386Z,17.27
2023-04-16T23:25:58.399Z,12.43
2023-04-16T23:28:25.540Z,13.32
2023-04-16T23:30:53.160Z,12.98
2023-04-16T23:33:20.949Z,10.73
2023-04-16T23:35:48.123Z,10.95
2023-04-16T23:38:15.145Z,11.80
2023-04-16T23:40:42.361Z,10.40
2023-04-16T23:43:09.442Z,12.02
2023-04-16T23:45:36.535Z,14.07
2023-04-16T23:48:03.828Z,10.65
2023-04-16T23:50:30.880Z,9.13
2023-04-16T23:52:57.892Z,11.52
2023-04-16T23:55:25.544Z,10.35
2023-04-16T23:57:52.569Z,10.65
